Nuka Arctica — OXYH2 — position and weather

sailwx.info

Track history (hours):
 
Tides and Currents Weather Stations Pressure Air Temp Water Temp Dewpoint Dewpoint Depression Visibility Wind Speed Wind Dir Waves Ship Positions

Nuka Arctica

Last reported at 2017-Mar-24 18:14 UTC. Time now 2017-Mar-25 01:47 UTC.
Position N 58°34' W 002°26'.

Length 132.92 m; beam 24 m; draft 7.65 m.

Type: Cargo ship. MMSI: 219655000.

Date/timePositionNaut miles runAvg speedWind from/ knotsBaromVisibWave heightAir tempDewpointWater temp
2017-Mar-24 18:14N 58°34' W 002°26'913.1
2017-Mar-24 17:33N 58°36' W 002°43'1414.2
2017-Mar-24 16:33N 58°43' W 003°06'1514.5
2017-Mar-24 15:33N 58°43' W 003°34'1413.7
2017-Mar-24 14:33N 58°42' W 004°01'1413.5
2017-Mar-24 13:32N 58°43' W 004°27'  
2017-Mar-20 02:19N 63°24' W 051°44'1216.0
2017-Mar-20 01:34N 63°35' W 051°55'1616.0
2017-Mar-20 00:33N 63°50' W 052°09'1313.4
2017-Mar-19 23:33N 64°03' W 052°12'1414.4
2017-Mar-19 22:33N 64°10' W 051°43'0 0.0
2017-Mar-19 21:32N 64°10' W 051°43'0 0.0
2017-Mar-19 20:32N 64°10' W 051°43'0 0.0
2017-Mar-19 19:31N 64°10' W 051°43'0 0.0
2017-Mar-19 18:32N 64°10' W 051°43'0 0.0
2017-Mar-19 17:32N 64°10' W 051°43'0 0.0
2017-Mar-19 16:29N 64°10' W 051°43'0 0.0
2017-Mar-19 15:31N 64°10' W 051°43'0 0.0
2017-Mar-19 14:32N 64°10' W 051°43'0 0.0
2017-Mar-19 13:32N 64°10' W 051°43'0 0.0
2017-Mar-19 12:32N 64°10' W 051°43'0 0.0
2017-Mar-19 11:32N 64°10' W 051°43'0 0.2
2017-Mar-19 10:34N 64°10' W 051°43'10 9.5
2017-Mar-19 09:33N 64°05' W 052°02'1010.5
2017-Mar-19 08:33N 64°10' W 052°23'1312.7
2017-Mar-19 07:33N 64°22' W 052°32'1313.2
2017-Mar-19 06:33N 64°35' W 052°41'1413.4
2017-Mar-19 05:33N 64°47' W 052°51'1313.3
2017-Mar-19 04:33N 65°00' W 053°01'13 0.3
2017-Mar-17 13:08N 65°12' W 053°10'814.8
2017-Mar-17 12:33N 65°04' W 053°04'1414.2
2017-Mar-17 11:33N 64°51' W 052°54'1413.7
2017-Mar-17 10:33N 64°38' W 052°44'1413.6
2017-Mar-17 09:34N 64°25' W 052°34'1313.2
2017-Mar-17 08:33N 64°12' W 052°25'1111.2
2017-Mar-17 07:33N 64°04' W 052°07'1211.8
2017-Mar-17 06:33N 64°10' W 051°43'0 0.0
2017-Mar-17 05:33N 64°10' W 051°43'0 0.0
2017-Mar-17 04:31N 64°10' W 051°43'0 0.0
2017-Mar-17 03:31N 64°10' W 051°43'0 0.0
2017-Mar-17 02:31N 64°10' W 051°43'0 0.0
2017-Mar-17 01:31N 64°10' W 051°43'0 0.0
2017-Mar-17 00:31N 64°10' W 051°43'0 0.0
2017-Mar-16 23:28N 64°10' W 051°43'0 0.0
2017-Mar-16 22:31N 64°10' W 051°43'0 0.0
2017-Mar-16 21:28N 64°10' W 051°43'0 0.0
2017-Mar-16 20:28N 64°10' W 051°43'0 0.0
2017-Mar-16 19:31N 64°10' W 051°43'0 0.0
2017-Mar-16 18:31N 64°10' W 051°43'0 0.0
2017-Mar-16 17:31N 64°10' W 051°43'0 0.0
2017-Mar-16 16:31N 64°10' W 051°43'0 0.0
2017-Mar-16 15:31N 64°10' W 051°43'0 0.0
2017-Mar-16 14:31N 64°10' W 051°43'0 0.0
2017-Mar-16 13:31N 64°10' W 051°43'0 0.0
2017-Mar-16 12:31N 64°10' W 051°43'2 2.1
2017-Mar-16 11:33N 64°09' W 051°47'1010.2
2017-Mar-16 10:33N 63°59' W 051°40'1413.5
2017-Mar-16 09:33N 63°46' W 051°36'1515.3
2017-Mar-16 08:33N 63°31' W 051°44'  
Track history (hours):
 
Tides and Currents Weather Stations Pressure Air Temp Water Temp Dewpoint Dewpoint Depression Visibility Wind Speed Wind Dir Waves Ship Positions

Nuka Arctica

Last reported at 2017-Mar-24 18:14 UTC. Time now 2017-Mar-25 01:47 UTC.
Position N 58°34' W 002°26'.

Length 132.92 m; beam 24 m; draft 7.65 m.

Type: Cargo ship. MMSI: 219655000.

Date/timePositionNaut miles runAvg speedWind from/ knotsBaromVisibWave heightAir tempDewpointWater temp
2017-Mar-24 18:14N 58°34' W 002°26'913.1
2017-Mar-24 17:33N 58°36' W 002°43'1414.2
2017-Mar-24 16:33N 58°43' W 003°06'1514.5
2017-Mar-24 15:33N 58°43' W 003°34'1413.7
2017-Mar-24 14:33N 58°42' W 004°01'1413.5
2017-Mar-24 13:32N 58°43' W 004°27'  
2017-Mar-20 02:19N 63°24' W 051°44'1216.0
2017-Mar-20 01:34N 63°35' W 051°55'1616.0
2017-Mar-20 00:33N 63°50' W 052°09'1313.4
2017-Mar-19 23:33N 64°03' W 052°12'1414.4
2017-Mar-19 22:33N 64°10' W 051°43'0 0.0
2017-Mar-19 21:32N 64°10' W 051°43'0 0.0
2017-Mar-19 20:32N 64°10' W 051°43'0 0.0
2017-Mar-19 19:31N 64°10' W 051°43'0 0.0
2017-Mar-19 18:32N 64°10' W 051°43'0 0.0
2017-Mar-19 17:32N 64°10' W 051°43'0 0.0
2017-Mar-19 16:29N 64°10' W 051°43'0 0.0
2017-Mar-19 15:31N 64°10' W 051°43'0 0.0
2017-Mar-19 14:32N 64°10' W 051°43'0 0.0
2017-Mar-19 13:32N 64°10' W 051°43'0 0.0
2017-Mar-19 12:32N 64°10' W 051°43'0 0.0
2017-Mar-19 11:32N 64°10' W 051°43'0 0.2
2017-Mar-19 10:34N 64°10' W 051°43'10 9.5
2017-Mar-19 09:33N 64°05' W 052°02'1010.5
2017-Mar-19 08:33N 64°10' W 052°23'1312.7
2017-Mar-19 07:33N 64°22' W 052°32'1313.2
2017-Mar-19 06:33N 64°35' W 052°41'1413.4
2017-Mar-19 05:33N 64°47' W 052°51'1313.3
2017-Mar-19 04:33N 65°00' W 053°01'13 0.3
2017-Mar-17 13:08N 65°12' W 053°10'814.8
2017-Mar-17 12:33N 65°04' W 053°04'1414.2
2017-Mar-17 11:33N 64°51' W 052°54'1413.7
2017-Mar-17 10:33N 64°38' W 052°44'1413.6
2017-Mar-17 09:34N 64°25' W 052°34'1313.2
2017-Mar-17 08:33N 64°12' W 052°25'1111.2
2017-Mar-17 07:33N 64°04' W 052°07'1211.8
2017-Mar-17 06:33N 64°10' W 051°43'0 0.0
2017-Mar-17 05:33N 64°10' W 051°43'0 0.0
2017-Mar-17 04:31N 64°10' W 051°43'0 0.0
2017-Mar-17 03:31N 64°10' W 051°43'0 0.0
2017-Mar-17 02:31N 64°10' W 051°43'0 0.0
2017-Mar-17 01:31N 64°10' W 051°43'0 0.0
2017-Mar-17 00:31N 64°10' W 051°43'0 0.0
2017-Mar-16 23:28N 64°10' W 051°43'0 0.0
2017-Mar-16 22:31N 64°10' W 051°43'0 0.0
2017-Mar-16 21:28N 64°10' W 051°43'0 0.0
2017-Mar-16 20:28N 64°10' W 051°43'0 0.0
2017-Mar-16 19:31N 64°10' W 051°43'0 0.0
2017-Mar-16 18:31N 64°10' W 051°43'0 0.0
2017-Mar-16 17:31N 64°10' W 051°43'0 0.0
2017-Mar-16 16:31N 64°10' W 051°43'0 0.0
2017-Mar-16 15:31N 64°10' W 051°43'0 0.0
2017-Mar-16 14:31N 64°10' W 051°43'0 0.0
2017-Mar-16 13:31N 64°10' W 051°43'0 0.0
2017-Mar-16 12:31N 64°10' W 051°43'2 2.1
2017-Mar-16 11:33N 64°09' W 051°47'1010.2
2017-Mar-16 10:33N 63°59' W 051°40'1413.5
2017-Mar-16 09:33N 63°46' W 051°36'1515.3
2017-Mar-16 08:33N 63°31' W 051°44'  

Dump ship's entire track history